El Trebol, Argentina

9:20 AM ART on May 28, 2015 (GMT -0300)
Armstrong, Santa Fe, Argentina | | Change Station
CLOSE
Current Station
Personal Weather Station
Location: Armstrong, SANTA FE
Elevation: 397 ft
Nearby Weather Stations

Elev 397 ft 32.79 °S, 61.61 °W | Updated 4 minutes ago

Fog
Fog
55.5 °F
Feels Like 55.5 °F
N
3.8
Wind Variable Wind from NW
Gusts 6.9 mph

Today
High -- | Low -- °F
--% Chance of Precip.
Yesterday
High -- | Low -- °F
Precip. -- in
7:57 AM 6:10 PM
Waxing Gibbous, 75% visible
Pressure 30.21 in
Visibility 0.1 miles
Clouds Mostly Cloudy 100 ft
Dew Point 43 °F
Humidity 63%
Rainfall 0.00 in
Snow Depth Not available.
UV 0 out of 12
Pollen Not available.
Air Quality Not available.
Flu Activity Not available.
METAR SAAR 281200Z 00000KT 0200 FG BKN001 11/10 Q1023

More Conditions Fewer Conditions

Pressure 30.21 in
Visibility 0.1 miles
Clouds Mostly Cloudy 100 ft
Dew Point 43 °F
Humidity 63%
Rainfall 0.00 in
Snow Depth Not available.
UV 0 out of 12
Pollen Not available.
Air Quality Not available.
Flu Activity Not available.
METAR SAAR 281200Z 00000KT 0200 FG BKN001 11/10 Q1023

More Conditions Fewer Conditions

10-Day Weather Forecast

Almanac

Astronomy

May. 28, 2015 Rise Set
Actual Time
Civil Twilight
Nautical Twilight
Astronomical Twilight
Moon
Length of Visible Light
Length of Day
Tomorrow will be .
, % of the Moon is Illuminated

Today's Extremes

Country Highs Country Lows

Community

WunderPhotos

Upload Photos

1,824,961 photos uploaded!

WunderBlogs® & News

Nearby

Air Quality

  Air Quality AQ Index Pollutant
Not available.

Snow Depth

Station Depth Elevation

Earthquake Activity

City Distance Mag. Time & Date
Minimum magnitude displayed is 2.5.

Coastal Water Temperatures

Place Temperature

Stations

Nearby Weather Stations

Station Location Temp. Windchill Dew Point Humidity Wind Precip. Elev Updated Type